<?xml version="1.0" encoding="UTF-8" standalone="no" ?>
<gpx xmlns="http://www.topografix.com/GPX/1/1" xmlns:xsi="http://www.w3.org/2001/XMLSchema-instance" xsi:schemaLocation="http://www.topografix.com/GPX/1/1 http://www.topografix.com/GPX/1/1/gpx.xsd" version="1.1" creator="VisuGPX - https://www.visugpx.com">
  <metadata>
    <name>83 - V - Villecroze</name>
    <desc><![CDATA[le Cros du Paradis. Bon sentiers.]]></desc>
  </metadata>
  <wpt lat="43.58167" lon="6.27217">
    <ele>327</ele>
    <name><![CDATA[]]></name>
    <type><![CDATA[GENERIC]]></type>
  </wpt>
  <wpt lat="43.58166" lon="6.27213">
    <ele>327</ele>
    <name><![CDATA[]]></name>
    <type><![CDATA[GENERIC]]></type>
  </wpt>
  <trk>
    <name><![CDATA[Randonnée du 19/04/2025 à 18:32]]></name>
    <trkseg>
      <trkpt lat="43.58166" lon="6.27213">
        <ele>327</ele>
        <time>2025-04-19T16:33:19.000Z</time>
      </trkpt>
      <trkpt lat="43.58132" lon="6.27105">
        <ele>329</ele>
        <time>2025-04-19T16:35:17.000Z</time>
      </trkpt>
      <trkpt lat="43.58136" lon="6.27049">
        <ele>332</ele>
        <time>2025-04-19T16:36:35.000Z</time>
      </trkpt>
      <trkpt lat="43.58118" lon="6.27027">
        <ele>333</ele>
        <time>2025-04-19T16:37:12.000Z</time>
      </trkpt>
      <trkpt lat="43.58077" lon="6.26954">
        <ele>326</ele>
        <time>2025-04-19T16:38:29.000Z</time>
      </trkpt>
      <trkpt lat="43.5803" lon="6.26773">
        <ele>310</ele>
        <time>2025-04-19T16:41:09.000Z</time>
      </trkpt>
      <trkpt lat="43.58044" lon="6.26687">
        <ele>308</ele>
        <time>2025-04-19T16:42:22.000Z</time>
      </trkpt>
      <trkpt lat="43.58044" lon="6.26585">
        <ele>312</ele>
        <time>2025-04-19T16:44:28.000Z</time>
      </trkpt>
      <trkpt lat="43.58085" lon="6.26555">
        <ele>316</ele>
        <time>2025-04-19T16:46:02.000Z</time>
      </trkpt>
      <trkpt lat="43.58126" lon="6.26557">
        <ele>324</ele>
        <time>2025-04-19T16:48:11.000Z</time>
      </trkpt>
      <trkpt lat="43.58179" lon="6.26585">
        <ele>335</ele>
        <time>2025-04-19T16:51:09.000Z</time>
      </trkpt>
      <trkpt lat="43.58214" lon="6.26537">
        <ele>341</ele>
        <time>2025-04-19T16:53:06.000Z</time>
      </trkpt>
      <trkpt lat="43.58215" lon="6.2647">
        <ele>347</ele>
        <time>2025-04-19T16:55:04.000Z</time>
      </trkpt>
      <trkpt lat="43.5822" lon="6.26411">
        <ele>353</ele>
        <time>2025-04-19T16:56:55.000Z</time>
      </trkpt>
      <trkpt lat="43.58218" lon="6.26347">
        <ele>355</ele>
        <time>2025-04-19T16:58:09.000Z</time>
      </trkpt>
      <trkpt lat="43.58229" lon="6.26324">
        <ele>358</ele>
        <time>2025-04-19T16:59:04.000Z</time>
      </trkpt>
      <trkpt lat="43.58203" lon="6.26163">
        <ele>362</ele>
        <time>2025-04-19T17:02:02.000Z</time>
      </trkpt>
      <trkpt lat="43.58186" lon="6.26026">
        <ele>359</ele>
        <time>2025-04-19T17:03:57.000Z</time>
      </trkpt>
      <trkpt lat="43.58196" lon="6.25885">
        <ele>355</ele>
        <time>2025-04-19T17:05:54.000Z</time>
      </trkpt>
      <trkpt lat="43.58167" lon="6.25821">
        <ele>357</ele>
        <time>2025-04-19T17:07:17.000Z</time>
      </trkpt>
      <trkpt lat="43.58207" lon="6.25723">
        <ele>367</ele>
        <time>2025-04-19T17:10:33.000Z</time>
      </trkpt>
      <trkpt lat="43.58208" lon="6.25602">
        <ele>369</ele>
        <time>2025-04-19T17:12:34.000Z</time>
      </trkpt>
      <trkpt lat="43.58227" lon="6.25531">
        <ele>377</ele>
        <time>2025-04-19T17:14:59.000Z</time>
      </trkpt>
      <trkpt lat="43.58196" lon="6.25445">
        <ele>379</ele>
        <time>2025-04-19T17:16:39.000Z</time>
      </trkpt>
      <trkpt lat="43.58237" lon="6.25336">
        <ele>397</ele>
        <time>2025-04-19T17:21:26.000Z</time>
      </trkpt>
      <trkpt lat="43.58272" lon="6.25277">
        <ele>406</ele>
        <time>2025-04-19T17:24:01.000Z</time>
      </trkpt>
      <trkpt lat="43.58301" lon="6.25253">
        <ele>415</ele>
        <time>2025-04-19T17:26:12.000Z</time>
      </trkpt>
      <trkpt lat="43.58353" lon="6.25239">
        <ele>426</ele>
        <time>2025-04-19T17:29:05.000Z</time>
      </trkpt>
      <trkpt lat="43.58436" lon="6.25239">
        <ele>441</ele>
        <time>2025-04-19T17:33:15.000Z</time>
      </trkpt>
      <trkpt lat="43.58521" lon="6.25233">
        <ele>444</ele>
        <time>2025-04-19T17:35:23.000Z</time>
      </trkpt>
      <trkpt lat="43.58542" lon="6.2533">
        <ele>439</ele>
        <time>2025-04-19T17:36:47.000Z</time>
      </trkpt>
      <trkpt lat="43.58579" lon="6.25343">
        <ele>441</ele>
        <time>2025-04-19T17:37:51.000Z</time>
      </trkpt>
      <trkpt lat="43.58624" lon="6.25398">
        <ele>443</ele>
        <time>2025-04-19T17:39:20.000Z</time>
      </trkpt>
      <trkpt lat="43.58599" lon="6.25443">
        <ele>445</ele>
        <time>2025-04-19T17:40:28.000Z</time>
      </trkpt>
      <trkpt lat="43.58626" lon="6.25522">
        <ele>444</ele>
        <time>2025-04-19T17:41:40.000Z</time>
      </trkpt>
      <trkpt lat="43.58634" lon="6.25582">
        <ele>443</ele>
        <time>2025-04-19T17:42:31.000Z</time>
      </trkpt>
      <trkpt lat="43.58612" lon="6.25659">
        <ele>444</ele>
        <time>2025-04-19T17:43:50.000Z</time>
      </trkpt>
      <trkpt lat="43.58628" lon="6.25746">
        <ele>446</ele>
        <time>2025-04-19T17:45:25.000Z</time>
      </trkpt>
      <trkpt lat="43.58681" lon="6.25807">
        <ele>445</ele>
        <time>2025-04-19T17:46:44.000Z</time>
      </trkpt>
      <trkpt lat="43.58698" lon="6.25872">
        <ele>446</ele>
        <time>2025-04-19T17:47:52.000Z</time>
      </trkpt>
      <trkpt lat="43.5873" lon="6.25914">
        <ele>447</ele>
        <time>2025-04-19T17:48:53.000Z</time>
      </trkpt>
      <trkpt lat="43.5876" lon="6.25949">
        <ele>446</ele>
        <time>2025-04-19T17:49:38.000Z</time>
      </trkpt>
      <trkpt lat="43.58788" lon="6.2598">
        <ele>445</ele>
        <time>2025-04-19T17:50:19.000Z</time>
      </trkpt>
      <trkpt lat="43.58802" lon="6.26">
        <ele>447</ele>
        <time>2025-04-19T17:51:03.000Z</time>
      </trkpt>
      <trkpt lat="43.58826" lon="6.25984">
        <ele>447</ele>
        <time>2025-04-19T17:51:33.000Z</time>
      </trkpt>
      <trkpt lat="43.58876" lon="6.25988">
        <ele>450</ele>
        <time>2025-04-19T17:53:02.000Z</time>
      </trkpt>
      <trkpt lat="43.58908" lon="6.26019">
        <ele>452</ele>
        <time>2025-04-19T17:54:07.000Z</time>
      </trkpt>
      <trkpt lat="43.58949" lon="6.2605">
        <ele>455</ele>
        <time>2025-04-19T17:55:31.000Z</time>
      </trkpt>
      <trkpt lat="43.58966" lon="6.26104">
        <ele>457</ele>
        <time>2025-04-19T17:56:41.000Z</time>
      </trkpt>
      <trkpt lat="43.59003" lon="6.26135">
        <ele>456</ele>
        <time>2025-04-19T17:57:31.000Z</time>
      </trkpt>
      <trkpt lat="43.58949" lon="6.26261">
        <ele>450</ele>
        <time>2025-04-19T17:59:33.000Z</time>
      </trkpt>
      <trkpt lat="43.58986" lon="6.26263">
        <ele>453</ele>
        <time>2025-04-19T18:00:46.000Z</time>
      </trkpt>
      <trkpt lat="43.58999" lon="6.26331">
        <ele>451</ele>
        <time>2025-04-19T18:01:44.000Z</time>
      </trkpt>
      <trkpt lat="43.59051" lon="6.26351">
        <ele>453</ele>
        <time>2025-04-19T18:03:06.000Z</time>
      </trkpt>
      <trkpt lat="43.5904" lon="6.26395">
        <ele>454</ele>
        <time>2025-04-19T18:03:55.000Z</time>
      </trkpt>
      <trkpt lat="43.5905" lon="6.26462">
        <ele>457</ele>
        <time>2025-04-19T18:05:23.000Z</time>
      </trkpt>
      <trkpt lat="43.59075" lon="6.26504">
        <ele>461</ele>
        <time>2025-04-19T18:06:49.000Z</time>
      </trkpt>
      <trkpt lat="43.59116" lon="6.26594">
        <ele>465</ele>
        <time>2025-04-19T18:08:58.000Z</time>
      </trkpt>
      <trkpt lat="43.5912" lon="6.26694">
        <ele>468</ele>
        <time>2025-04-19T18:10:52.000Z</time>
      </trkpt>
      <trkpt lat="43.59145" lon="6.26714">
        <ele>472</ele>
        <time>2025-04-19T18:12:06.000Z</time>
      </trkpt>
      <trkpt lat="43.59151" lon="6.26758">
        <ele>475</ele>
        <time>2025-04-19T18:13:14.000Z</time>
      </trkpt>
      <trkpt lat="43.59173" lon="6.26815">
        <ele>481</ele>
        <time>2025-04-19T18:15:09.000Z</time>
      </trkpt>
      <trkpt lat="43.59191" lon="6.26846">
        <ele>481</ele>
        <time>2025-04-19T18:15:42.000Z</time>
      </trkpt>
      <trkpt lat="43.59243" lon="6.26875">
        <ele>481</ele>
        <time>2025-04-19T18:16:46.000Z</time>
      </trkpt>
      <trkpt lat="43.5922" lon="6.26926">
        <ele>482</ele>
        <time>2025-04-19T18:17:46.000Z</time>
      </trkpt>
      <trkpt lat="43.59179" lon="6.2697">
        <ele>487</ele>
        <time>2025-04-19T18:19:37.000Z</time>
      </trkpt>
      <trkpt lat="43.59185" lon="6.27061">
        <ele>494</ele>
        <time>2025-04-19T18:22:05.000Z</time>
      </trkpt>
      <trkpt lat="43.59215" lon="6.2712">
        <ele>500</ele>
        <time>2025-04-19T18:24:06.000Z</time>
      </trkpt>
      <trkpt lat="43.59269" lon="6.27185">
        <ele>507</ele>
        <time>2025-04-19T18:26:41.000Z</time>
      </trkpt>
      <trkpt lat="43.59392" lon="6.27237">
        <ele>506</ele>
        <time>2025-04-19T18:29:08.000Z</time>
      </trkpt>
      <trkpt lat="43.59409" lon="6.27275">
        <ele>502</ele>
        <time>2025-04-19T18:29:45.000Z</time>
      </trkpt>
      <trkpt lat="43.59454" lon="6.27229">
        <ele>507</ele>
        <time>2025-04-19T18:31:40.000Z</time>
      </trkpt>
      <trkpt lat="43.59522" lon="6.27268">
        <ele>508</ele>
        <time>2025-04-19T18:33:14.000Z</time>
      </trkpt>
      <trkpt lat="43.59557" lon="6.27271">
        <ele>511</ele>
        <time>2025-04-19T18:34:26.000Z</time>
      </trkpt>
      <trkpt lat="43.59571" lon="6.27332">
        <ele>511</ele>
        <time>2025-04-19T18:35:18.000Z</time>
      </trkpt>
      <trkpt lat="43.59534" lon="6.27421">
        <ele>515</ele>
        <time>2025-04-19T18:37:25.000Z</time>
      </trkpt>
      <trkpt lat="43.59454" lon="6.27458">
        <ele>513</ele>
        <time>2025-04-19T18:39:01.000Z</time>
      </trkpt>
      <trkpt lat="43.59392" lon="6.2749">
        <ele>510</ele>
        <time>2025-04-19T18:40:17.000Z</time>
      </trkpt>
      <trkpt lat="43.59333" lon="6.27496">
        <ele>512</ele>
        <time>2025-04-19T18:41:46.000Z</time>
      </trkpt>
      <trkpt lat="43.59278" lon="6.27459">
        <ele>514</ele>
        <time>2025-04-19T18:43:16.000Z</time>
      </trkpt>
      <trkpt lat="43.59233" lon="6.27417">
        <ele>510</ele>
        <time>2025-04-19T18:44:18.000Z</time>
      </trkpt>
      <trkpt lat="43.5915" lon="6.27461">
        <ele>506</ele>
        <time>2025-04-19T18:46:00.000Z</time>
      </trkpt>
      <trkpt lat="43.59079" lon="6.27514">
        <ele>490</ele>
        <time>2025-04-19T18:47:33.000Z</time>
      </trkpt>
      <trkpt lat="43.5904" lon="6.27562">
        <ele>477</ele>
        <time>2025-04-19T18:48:32.000Z</time>
      </trkpt>
      <trkpt lat="43.59026" lon="6.27596">
        <ele>477</ele>
        <time>2025-04-19T18:49:05.000Z</time>
      </trkpt>
      <trkpt lat="43.58966" lon="6.27615">
        <ele>478</ele>
        <time>2025-04-19T18:50:25.000Z</time>
      </trkpt>
      <trkpt lat="43.58935" lon="6.27649">
        <ele>475</ele>
        <time>2025-04-19T18:51:11.000Z</time>
      </trkpt>
      <trkpt lat="43.58911" lon="6.27677">
        <ele>471</ele>
        <time>2025-04-19T18:51:46.000Z</time>
      </trkpt>
      <trkpt lat="43.5885" lon="6.27706">
        <ele>469</ele>
        <time>2025-04-19T18:53:00.000Z</time>
      </trkpt>
      <trkpt lat="43.58853" lon="6.27746">
        <ele>464</ele>
        <time>2025-04-19T18:53:33.000Z</time>
      </trkpt>
      <trkpt lat="43.58796" lon="6.27784">
        <ele>460</ele>
        <time>2025-04-19T18:54:45.000Z</time>
      </trkpt>
      <trkpt lat="43.5878" lon="6.27837">
        <ele>445</ele>
        <time>2025-04-19T18:55:33.000Z</time>
      </trkpt>
      <trkpt lat="43.58763" lon="6.27852">
        <ele>445</ele>
        <time>2025-04-19T18:55:56.000Z</time>
      </trkpt>
      <trkpt lat="43.58752" lon="6.27733">
        <ele>442</ele>
        <time>2025-04-19T18:57:35.000Z</time>
      </trkpt>
      <trkpt lat="43.58733" lon="6.27688">
        <ele>445</ele>
        <time>2025-04-19T18:58:49.000Z</time>
      </trkpt>
      <trkpt lat="43.58745" lon="6.27626">
        <ele>436</ele>
        <time>2025-04-19T18:59:42.000Z</time>
      </trkpt>
      <trkpt lat="43.58719" lon="6.27611">
        <ele>428</ele>
        <time>2025-04-19T19:00:15.000Z</time>
      </trkpt>
      <trkpt lat="43.58724" lon="6.27448">
        <ele>422</ele>
        <time>2025-04-19T19:02:30.000Z</time>
      </trkpt>
      <trkpt lat="43.58663" lon="6.27346">
        <ele>413</ele>
        <time>2025-04-19T19:04:20.000Z</time>
      </trkpt>
      <trkpt lat="43.5862" lon="6.27299">
        <ele>411</ele>
        <time>2025-04-19T19:05:24.000Z</time>
      </trkpt>
      <trkpt lat="43.58588" lon="6.27264">
        <ele>407</ele>
        <time>2025-04-19T19:06:10.000Z</time>
      </trkpt>
      <trkpt lat="43.58593" lon="6.27187">
        <ele>403</ele>
        <time>2025-04-19T19:07:14.000Z</time>
      </trkpt>
      <trkpt lat="43.586" lon="6.271">
        <ele>401</ele>
        <time>2025-04-19T19:08:27.000Z</time>
      </trkpt>
      <trkpt lat="43.58571" lon="6.27052">
        <ele>391</ele>
        <time>2025-04-19T19:09:19.000Z</time>
      </trkpt>
      <trkpt lat="43.58564" lon="6.26994">
        <ele>387</ele>
        <time>2025-04-19T19:10:08.000Z</time>
      </trkpt>
      <trkpt lat="43.58547" lon="6.26944">
        <ele>376</ele>
        <time>2025-04-19T19:10:53.000Z</time>
      </trkpt>
      <trkpt lat="43.58499" lon="6.26926">
        <ele>372</ele>
        <time>2025-04-19T19:11:50.000Z</time>
      </trkpt>
      <trkpt lat="43.58483" lon="6.26913">
        <ele>371</ele>
        <time>2025-04-19T19:12:11.000Z</time>
      </trkpt>
      <trkpt lat="43.58448" lon="6.26888">
        <ele>369</ele>
        <time>2025-04-19T19:12:57.000Z</time>
      </trkpt>
      <trkpt lat="43.58367" lon="6.26943">
        <ele>361</ele>
        <time>2025-04-19T19:14:40.000Z</time>
      </trkpt>
      <trkpt lat="43.5835" lon="6.2697">
        <ele>360</ele>
        <time>2025-04-19T19:15:10.000Z</time>
      </trkpt>
      <trkpt lat="43.58356" lon="6.27043">
        <ele>359</ele>
        <time>2025-04-19T19:16:11.000Z</time>
      </trkpt>
      <trkpt lat="43.5837" lon="6.27091">
        <ele>354</ele>
        <time>2025-04-19T19:16:53.000Z</time>
      </trkpt>
      <trkpt lat="43.58346" lon="6.27085">
        <ele>349</ele>
        <time>2025-04-19T19:17:21.000Z</time>
      </trkpt>
      <trkpt lat="43.58334" lon="6.27191">
        <ele>343</ele>
        <time>2025-04-19T19:18:50.000Z</time>
      </trkpt>
      <trkpt lat="43.58285" lon="6.27196">
        <ele>337</ele>
        <time>2025-04-19T19:19:46.000Z</time>
      </trkpt>
      <trkpt lat="43.58232" lon="6.27217">
        <ele>332</ele>
        <time>2025-04-19T19:20:49.000Z</time>
      </trkpt>
      <trkpt lat="43.58167" lon="6.27217">
        <ele>327</ele>
        <time>2025-04-19T19:22:03.000Z</time>
      </trkpt>
    </trkseg>
  </trk>
</gpx>